sensor_id;sensor_type;location;lat;lon;timestamp;pressure;altitude;pressure_sealevel;temperature;humidity
40940;BME280;26666;50.156;7.700;2023-02-17T00:03:42;101145.09;;;7.24;100.00
40940;BME280;26666;50.156;7.700;2023-02-17T00:08:45;101144.78;;;7.29;100.00
40940;BME280;26666;50.156;7.700;2023-02-17T00:13:47;101139.66;;;7.42;100.00
40940;BME280;26666;50.156;7.700;2023-02-17T00:18:57;101166.72;;;7.44;100.00
40940;BME280;26666;50.156;7.700;2023-02-17T00:23:59;101163.03;;;7.46;100.00
40940;BME280;26666;50.156;7.700;2023-02-17T00:29:01;101164.91;;;7.44;100.00
40940;BME280;26666;50.156;7.700;2023-02-17T00:34:02;101166.06;;;7.55;100.00
40940;BME280;26666;50.156;7.700;2023-02-17T00:39:05;101153.28;;;7.48;100.00
40940;BME280;26666;50.156;7.700;2023-02-17T00:44:17;101156.94;;;7.46;100.00
40940;BME280;26666;50.156;7.700;2023-02-17T00:49:23;101163.25;;;7.43;100.00
40940;BME280;26666;50.156;7.700;2023-02-17T00:54:26;101157.84;;;7.30;100.00
40940;BME280;26666;50.156;7.700;2023-02-17T00:59:27;101153.47;;;7.45;100.00
40940;BME280;26666;50.156;7.700;2023-02-17T01:04:29;101149.34;;;7.41;100.00
40940;BME280;26666;50.156;7.700;2023-02-17T01:09:31;101151.59;;;7.47;100.00
40940;BME280;26666;50.156;7.700;2023-02-17T01:14:32;101152.16;;;7.53;100.00
40940;BME280;26666;50.156;7.700;2023-02-17T01:19:34;101155.34;;;7.43;100.00
40940;BME280;26666;50.156;7.700;2023-02-17T01:24:37;101140.22;;;7.47;100.00
40940;BME280;26666;50.156;7.700;2023-02-17T01:29:39;101142.78;;;7.63;100.00
40940;BME280;26666;50.156;7.700;2023-02-17T01:34:40;101125.69;;;7.56;100.00
40940;BME280;26666;50.156;7.700;2023-02-17T01:39:42;101115.47;;;7.51;100.00
40940;BME280;26666;50.156;7.700;2023-02-17T01:50:21;101097.41;;;7.59;100.00
40940;BME280;26666;50.156;7.700;2023-02-17T01:55:25;101089.44;;;7.61;100.00
40940;BME280;26666;50.156;7.700;2023-02-17T02:00:28;101078.81;;;7.62;100.00
40940;BME280;26666;50.156;7.700;2023-02-17T02:05:30;101066.22;;;7.67;100.00
40940;BME280;26666;50.156;7.700;2023-02-17T02:10:31;101060.50;;;7.61;100.00
40940;BME280;26666;50.156;7.700;2023-02-17T02:15:46;101062.66;;;7.54;100.00
40940;BME280;26666;50.156;7.700;2023-02-17T02:21:10;101065.38;;;7.67;100.00
40940;BME280;26666;50.156;7.700;2023-02-17T02:37:35;101045.56;;;7.61;100.00
40940;BME280;26666;50.156;7.700;2023-02-17T02:42:40;101048.19;;;7.61;100.00
40940;BME280;26666;50.156;7.700;2023-02-17T02:47:49;101038.50;;;7.62;100.00
40940;BME280;26666;50.156;7.700;2023-02-17T03:08:42;101032.00;;;7.82;100.00
40940;BME280;26666;50.156;7.700;2023-02-17T03:13:46;101035.22;;;7.73;100.00
40940;BME280;26666;50.156;7.700;2023-02-17T03:18:47;101030.72;;;7.75;100.00
40940;BME280;26666;50.156;7.700;2023-02-17T03:23:49;101021.03;;;7.75;100.00
40940;BME280;26666;50.156;7.700;2023-02-17T03:28:50;101023.34;;;7.80;100.00
40940;BME280;26666;50.156;7.700;2023-02-17T03:33:52;101022.06;;;7.73;100.00
40940;BME280;26666;50.156;7.700;2023-02-17T03:38:53;101030.72;;;7.75;100.00
40940;BME280;26666;50.156;7.700;2023-02-17T03:43:55;101035.09;;;7.74;100.00
40940;BME280;26666;50.156;7.700;2023-02-17T03:48:57;101031.16;;;7.81;100.00
40940;BME280;26666;50.156;7.700;2023-02-17T03:53:58;101046.47;;;7.89;100.00
40940;BME280;26666;50.156;7.700;2023-02-17T03:59:00;101046.66;;;7.86;100.00
40940;BME280;26666;50.156;7.700;2023-02-17T04:04:02;101037.81;;;7.87;100.00
40940;BME280;26666;50.156;7.700;2023-02-17T04:09:03;101029.56;;;7.79;100.00
40940;BME280;26666;50.156;7.700;2023-02-17T04:14:05;101035.94;;;7.89;100.00
40940;BME280;26666;50.156;7.700;2023-02-17T04:19:06;101036.34;;;7.83;100.00
40940;BME280;26666;50.156;7.700;2023-02-17T04:24:08;101030.69;;;7.89;100.00
40940;BME280;26666;50.156;7.700;2023-02-17T04:29:09;101037.91;;;7.85;100.00
40940;BME280;26666;50.156;7.700;2023-02-17T04:34:11;101030.84;;;8.00;100.00
40940;BME280;26666;50.156;7.700;2023-02-17T04:39:13;101025.22;;;7.92;100.00
40940;BME280;26666;50.156;7.700;2023-02-17T04:44:14;101021.84;;;7.90;100.00
40940;BME280;26666;50.156;7.700;2023-02-17T04:49:15;101020.06;;;7.90;100.00
40940;BME280;26666;50.156;7.700;2023-02-17T04:54:17;101023.34;;;7.94;100.00
40940;BME280;26666;50.156;7.700;2023-02-17T04:59:19;101028.69;;;7.93;100.00
40940;BME280;26666;50.156;7.700;2023-02-17T05:04:20;101026.41;;;8.01;100.00
40940;BME280;26666;50.156;7.700;2023-02-17T05:09:22;101027.81;;;8.06;100.00
40940;BME280;26666;50.156;7.700;2023-02-17T05:14:24;101028.13;;;8.02;100.00
40940;BME280;26666;50.156;7.700;2023-02-17T05:19:25;101010.72;;;8.26;100.00
40940;BME280;26666;50.156;7.700;2023-02-17T05:24:27;101011.34;;;8.44;100.00
40940;BME280;26666;50.156;7.700;2023-02-17T05:29:28;101004.69;;;8.12;100.00
40940;BME280;26666;50.156;7.700;2023-02-17T05:34:30;101012.69;;;8.23;100.00
40940;BME280;26666;50.156;7.700;2023-02-17T05:39:31;101009.78;;;8.27;100.00
40940;BME280;26666;50.156;7.700;2023-02-17T05:44:33;100998.78;;;8.21;100.00
40940;BME280;26666;50.156;7.700;2023-02-17T05:49:34;101004.75;;;8.37;100.00
40940;BME280;26666;50.156;7.700;2023-02-17T05:54:36;101008.63;;;8.59;100.00
40940;BME280;26666;50.156;7.700;2023-02-17T05:59:37;101003.56;;;8.28;100.00
40940;BME280;26666;50.156;7.700;2023-02-17T06:04:39;101017.38;;;8.32;100.00
40940;BME280;26666;50.156;7.700;2023-02-17T06:09:40;101022.31;;;8.24;100.00
40940;BME280;26666;50.156;7.700;2023-02-17T06:14:42;101026.72;;;8.23;100.00
40940;BME280;26666;50.156;7.700;2023-02-17T06:19:43;101012.38;;;8.42;100.00
40940;BME280;26666;50.156;7.700;2023-02-17T06:24:45;101016.00;;;8.54;100.00
40940;BME280;26666;50.156;7.700;2023-02-17T06:29:46;101020.22;;;8.29;100.00
40940;BME280;26666;50.156;7.700;2023-02-17T06:34:48;101036.66;;;8.33;100.00
40940;BME280;26666;50.156;7.700;2023-02-17T06:39:49;101033.50;;;8.40;100.00
40940;BME280;26666;50.156;7.700;2023-02-17T06:44:51;101037.25;;;8.78;100.00
40940;BME280;26666;50.156;7.700;2023-02-17T06:49:52;101048.88;;;8.61;100.00
40940;BME280;26666;50.156;7.700;2023-02-17T06:54:54;101044.97;;;8.54;100.00
40940;BME280;26666;50.156;7.700;2023-02-17T06:59:56;101045.56;;;8.84;100.00
40940;BME280;26666;50.156;7.700;2023-02-17T07:04:57;101032.72;;;8.80;100.00
40940;BME280;26666;50.156;7.700;2023-02-17T07:09:59;101028.81;;;8.85;100.00
40940;BME280;26666;50.156;7.700;2023-02-17T07:15:00;101025.88;;;9.03;100.00
40940;BME280;26666;50.156;7.700;2023-02-17T07:20:02;101040.38;;;8.70;100.00
40940;BME280;26666;50.156;7.700;2023-02-17T07:25:04;101039.78;;;8.52;100.00
40940;BME280;26666;50.156;7.700;2023-02-17T07:30:07;101033.03;;;8.48;100.00
40940;BME280;26666;50.156;7.700;2023-02-17T07:35:09;101023.47;;;8.60;100.00
40940;BME280;26666;50.156;7.700;2023-02-17T07:40:11;101023.41;;;8.74;100.00
40940;BME280;26666;50.156;7.700;2023-02-17T07:45:12;101024.69;;;8.81;100.00
40940;BME280;26666;50.156;7.700;2023-02-17T07:50:14;101044.50;;;8.74;100.00
40940;BME280;26666;50.156;7.700;2023-02-17T07:55:15;101044.78;;;8.69;100.00
40940;BME280;26666;50.156;7.700;2023-02-17T08:00:17;101050.47;;;8.63;100.00
40940;BME280;26666;50.156;7.700;2023-02-17T08:05:18;101046.91;;;8.64;100.00
40940;BME280;26666;50.156;7.700;2023-02-17T08:10:20;101048.63;;;8.78;100.00
40940;BME280;26666;50.156;7.700;2023-02-17T08:15:21;101045.88;;;8.80;100.00
40940;BME280;26666;50.156;7.700;2023-02-17T08:20:23;101043.19;;;9.07;100.00
40940;BME280;26666;50.156;7.700;2023-02-17T08:25:24;101035.16;;;8.96;100.00
40940;BME280;26666;50.156;7.700;2023-02-17T08:30:26;101025.16;;;9.01;100.00
40940;BME280;26666;50.156;7.700;2023-02-17T08:35:28;101020.19;;;9.09;100.00
40940;BME280;26666;50.156;7.700;2023-02-17T08:40:30;101022.06;;;8.94;100.00
40940;BME280;26666;50.156;7.700;2023-02-17T08:45:31;101035.56;;;9.02;100.00
40940;BME280;26666;50.156;7.700;2023-02-17T08:50:33;101030.31;;;9.15;100.00
40940;BME280;26666;50.156;7.700;2023-02-17T08:55:34;101043.91;;;9.22;100.00
40940;BME280;26666;50.156;7.700;2023-02-17T09:00:49;101054.75;;;9.04;100.00
40940;BME280;26666;50.156;7.700;2023-02-17T09:05:56;101044.66;;;9.11;100.00
40940;BME280;26666;50.156;7.700;2023-02-17T09:10:58;101025.47;;;9.09;100.00
40940;BME280;26666;50.156;7.700;2023-02-17T09:16:00;101028.63;;;9.40;100.00
40940;BME280;26666;50.156;7.700;2023-02-17T09:21:09;101044.97;;;9.32;100.00
40940;BME280;26666;50.156;7.700;2023-02-17T09:26:13;101063.31;;;9.59;100.00
40940;BME280;26666;50.156;7.700;2023-02-17T09:31:19;101059.81;;;9.59;100.00
40940;BME280;26666;50.156;7.700;2023-02-17T09:36:26;101068.44;;;9.61;100.00
40940;BME280;26666;50.156;7.700;2023-02-17T09:46:43;101059.38;;;9.65;100.00
40940;BME280;26666;50.156;7.700;2023-02-17T09:52:06;101075.44;;;9.62;100.00
40940;BME280;26666;50.156;7.700;2023-02-17T09:57:13;101070.97;;;9.75;100.00
40940;BME280;26666;50.156;7.700;2023-02-17T10:02:42;101072.69;;;9.63;100.00
40940;BME280;26666;50.156;7.700;2023-02-17T10:07:50;101068.19;;;9.90;100.00
40940;BME280;26666;50.156;7.700;2023-02-17T10:12:57;101065.78;;;10.23;100.00
40940;BME280;26666;50.156;7.700;2023-02-17T10:18:10;101077.78;;;10.40;100.00
40940;BME280;26666;50.156;7.700;2023-02-17T10:23:19;101065.28;;;10.42;100.00
40940;BME280;26666;50.156;7.700;2023-02-17T10:39:08;101082.81;;;10.68;100.00
40940;BME280;26666;50.156;7.700;2023-02-17T10:44:19;101076.16;;;10.51;100.00
40940;BME280;26666;50.156;7.700;2023-02-17T10:49:28;101070.69;;;10.65;100.00
40940;BME280;26666;50.156;7.700;2023-02-17T10:54:39;101073.38;;;10.76;100.00
40940;BME280;26666;50.156;7.700;2023-02-17T10:59:44;101062.94;;;10.86;100.00
40940;BME280;26666;50.156;7.700;2023-02-17T11:04:49;101061.00;;;10.77;100.00
40940;BME280;26666;50.156;7.700;2023-02-17T11:09:57;101059.16;;;11.24;100.00
40940;BME280;26666;50.156;7.700;2023-02-17T11:15:03;101060.50;;;11.75;100.00
40940;BME280;26666;50.156;7.700;2023-02-17T11:25:26;101076.97;;;11.22;100.00
40940;BME280;26666;50.156;7.700;2023-02-17T11:30:30;101074.97;;;11.48;100.00
40940;BME280;26666;50.156;7.700;2023-02-17T11:40:37;101085.16;;;11.41;100.00
40940;BME280;26666;50.156;7.700;2023-02-17T11:46:07;101078.78;;;11.44;100.00
40940;BME280;26666;50.156;7.700;2023-02-17T11:51:20;101082.94;;;11.01;100.00
40940;BME280;26666;50.156;7.700;2023-02-17T11:56:29;101076.63;;;11.27;100.00
40940;BME280;26666;50.156;7.700;2023-02-17T12:02:06;101073.00;;;11.28;100.00
40940;BME280;26666;50.156;7.700;2023-02-17T12:13:23;101050.31;;;11.36;100.00
40940;BME280;26666;50.156;7.700;2023-02-17T12:28:47;101027.06;;;11.06;100.00
40940;BME280;26666;50.156;7.700;2023-02-17T12:34:00;101045.06;;;11.01;100.00
40940;BME280;26666;50.156;7.700;2023-02-17T12:39:12;101033.97;;;10.84;100.00
40940;BME280;26666;50.156;7.700;2023-02-17T12:44:21;101018.16;;;11.18;100.00
40940;BME280;26666;50.156;7.700;2023-02-17T12:54:53;101010.47;;;11.60;100.00
40940;BME280;26666;50.156;7.700;2023-02-17T12:59:57;100989.31;;;11.15;100.00
40940;BME280;26666;50.156;7.700;2023-02-17T13:05:02;100972.81;;;11.34;100.00
40940;BME280;26666;50.156;7.700;2023-02-17T13:10:19;100962.34;;;11.44;100.00
40940;BME280;26666;50.156;7.700;2023-02-17T13:15:36;100977.28;;;11.68;100.00
40940;BME280;26666;50.156;7.700;2023-02-17T13:20:42;100964.25;;;11.64;100.00
40940;BME280;26666;50.156;7.700;2023-02-17T13:31:23;100955.16;;;11.23;100.00
40940;BME280;26666;50.156;7.700;2023-02-17T13:41:54;100959.16;;;11.95;100.00
40940;BME280;26666;50.156;7.700;2023-02-17T13:47:02;100948.88;;;11.70;100.00
40940;BME280;26666;50.156;7.700;2023-02-17T13:52:18;100935.69;;;11.91;100.00
40940;BME280;26666;50.156;7.700;2023-02-17T14:02:23;100925.69;;;11.94;100.00
40940;BME280;26666;50.156;7.700;2023-02-17T14:07:36;100912.44;;;11.94;100.00
40940;BME280;26666;50.156;7.700;2023-02-17T14:12:38;100918.31;;;11.66;100.00
40940;BME280;26666;50.156;7.700;2023-02-17T14:17:41;100920.66;;;11.80;100.00
40940;BME280;26666;50.156;7.700;2023-02-17T14:22:42;100928.09;;;11.97;100.00
40940;BME280;26666;50.156;7.700;2023-02-17T14:27:53;100923.78;;;11.85;100.00
40940;BME280;26666;50.156;7.700;2023-02-17T14:33:17;100932.66;;;12.07;100.00
40940;BME280;26666;50.156;7.700;2023-02-17T14:38:32;100932.81;;;11.94;100.00
40940;BME280;26666;50.156;7.700;2023-02-17T14:43:34;100911.13;;;11.89;100.00
40940;BME280;26666;50.156;7.700;2023-02-17T14:48:36;100905.41;;;11.72;100.00
40940;BME280;26666;50.156;7.700;2023-02-17T14:53:37;100900.91;;;11.84;100.00
40940;BME280;26666;50.156;7.700;2023-02-17T14:58:39;100897.03;;;11.88;100.00
40940;BME280;26666;50.156;7.700;2023-02-17T15:03:41;100909.59;;;11.75;100.00
40940;BME280;26666;50.156;7.700;2023-02-17T15:08:42;100933.78;;;11.81;100.00
40940;BME280;26666;50.156;7.700;2023-02-17T15:13:45;100960.41;;;11.57;100.00
40940;BME280;26666;50.156;7.700;2023-02-17T15:18:46;100963.81;;;11.48;100.00
40940;BME280;26666;50.156;7.700;2023-02-17T15:23:48;100964.44;;;11.40;100.00
40940;BME280;26666;50.156;7.700;2023-02-17T15:28:49;100974.53;;;11.58;100.00
40940;BME280;26666;50.156;7.700;2023-02-17T15:33:56;100993.28;;;11.43;100.00
40940;BME280;26666;50.156;7.700;2023-02-17T15:38:57;100974.88;;;11.42;100.00
40940;BME280;26666;50.156;7.700;2023-02-17T15:43:59;100981.25;;;11.39;100.00
40940;BME280;26666;50.156;7.700;2023-02-17T15:49:01;100980.66;;;11.36;100.00
40940;BME280;26666;50.156;7.700;2023-02-17T15:54:03;100988.84;;;11.33;100.00
40940;BME280;26666;50.156;7.700;2023-02-17T15:59:10;100990.88;;;11.29;100.00
40940;BME280;26666;50.156;7.700;2023-02-17T16:04:14;101001.09;;;11.22;100.00
40940;BME280;26666;50.156;7.700;2023-02-17T16:09:16;101009.63;;;11.37;100.00
40940;BME280;26666;50.156;7.700;2023-02-17T16:14:23;101011.91;;;11.64;100.00
40940;BME280;26666;50.156;7.700;2023-02-17T16:19:25;100992.94;;;11.37;100.00
40940;BME280;26666;50.156;7.700;2023-02-17T16:24:26;101016.38;;;11.30;100.00
40940;BME280;26666;50.156;7.700;2023-02-17T16:29:28;101000.38;;;11.20;100.00
40940;BME280;26666;50.156;7.700;2023-02-17T16:34:29;101007.34;;;11.10;100.00
40940;BME280;26666;50.156;7.700;2023-02-17T16:39:31;100988.09;;;11.08;100.00
40940;BME280;26666;50.156;7.700;2023-02-17T16:44:33;100997.13;;;10.94;100.00
40940;BME280;26666;50.156;7.700;2023-02-17T16:49:36;101003.00;;;11.20;100.00
40940;BME280;26666;50.156;7.700;2023-02-17T16:54:38;100999.16;;;11.02;100.00
40940;BME280;26666;50.156;7.700;2023-02-17T16:59:39;100999.75;;;10.94;100.00
40940;BME280;26666;50.156;7.700;2023-02-17T17:04:41;100998.06;;;11.04;100.00
40940;BME280;26666;50.156;7.700;2023-02-17T17:09:42;101013.22;;;11.02;100.00
40940;BME280;26666;50.156;7.700;2023-02-17T17:14:56;101013.72;;;11.30;100.00
40940;BME280;26666;50.156;7.700;2023-02-17T17:19:57;101020.31;;;11.02;100.00
40940;BME280;26666;50.156;7.700;2023-02-17T17:24:59;101020.06;;;11.05;100.00
40940;BME280;26666;50.156;7.700;2023-02-17T17:30:01;101026.91;;;10.96;100.00
40940;BME280;26666;50.156;7.700;2023-02-17T17:35:03;101039.94;;;11.22;100.00
40940;BME280;26666;50.156;7.700;2023-02-17T17:40:05;101055.41;;;11.04;100.00
40940;BME280;26666;50.156;7.700;2023-02-17T17:45:07;101065.91;;;11.17;100.00
40940;BME280;26666;50.156;7.700;2023-02-17T17:50:15;101080.00;;;11.40;100.00
40940;BME280;26666;50.156;7.700;2023-02-17T17:55:18;101092.19;;;10.96;100.00
40940;BME280;26666;50.156;7.700;2023-02-17T18:00:20;101109.00;;;10.95;100.00
40940;BME280;26666;50.156;7.700;2023-02-17T18:05:21;101113.41;;;10.83;100.00
40940;BME280;26666;50.156;7.700;2023-02-17T18:10:23;101127.69;;;10.80;100.00
40940;BME280;26666;50.156;7.700;2023-02-17T18:15:24;101133.56;;;10.73;100.00
40940;BME280;26666;50.156;7.700;2023-02-17T18:20:26;101142.47;;;10.83;100.00
40940;BME280;26666;50.156;7.700;2023-02-17T18:25:28;101153.00;;;10.72;100.00
40940;BME280;26666;50.156;7.700;2023-02-17T18:30:30;101156.06;;;10.78;100.00
40940;BME280;26666;50.156;7.700;2023-02-17T18:35:35;101155.16;;;10.67;100.00
40940;BME280;26666;50.156;7.700;2023-02-17T18:40:37;101158.97;;;10.62;100.00
40940;BME280;26666;50.156;7.700;2023-02-17T18:45:39;101172.63;;;10.56;100.00
40940;BME280;26666;50.156;7.700;2023-02-17T18:50:41;101177.50;;;10.50;100.00
40940;BME280;26666;50.156;7.700;2023-02-17T18:55:42;101181.13;;;10.73;100.00
40940;BME280;26666;50.156;7.700;2023-02-17T19:00:44;101183.53;;;10.52;100.00
40940;BME280;26666;50.156;7.700;2023-02-17T19:05:45;101194.63;;;10.57;100.00
40940;BME280;26666;50.156;7.700;2023-02-17T19:10:49;101202.69;;;10.42;100.00
40940;BME280;26666;50.156;7.700;2023-02-17T19:15:51;101202.28;;;10.36;100.00
40940;BME280;26666;50.156;7.700;2023-02-17T19:20:52;101207.34;;;10.26;100.00
40940;BME280;26666;50.156;7.700;2023-02-17T19:25:54;101212.38;;;10.55;100.00
40940;BME280;26666;50.156;7.700;2023-02-17T19:30:56;101215.97;;;10.54;100.00
40940;BME280;26666;50.156;7.700;2023-02-17T19:35:58;101224.44;;;10.59;100.00
40940;BME280;26666;50.156;7.700;2023-02-17T19:41:04;101230.34;;;10.50;100.00
40940;BME280;26666;50.156;7.700;2023-02-17T19:46:10;101222.34;;;10.38;100.00
40940;BME280;26666;50.156;7.700;2023-02-17T19:51:12;101227.28;;;10.56;100.00
40940;BME280;26666;50.156;7.700;2023-02-17T19:56:19;101225.09;;;10.74;100.00
40940;BME280;26666;50.156;7.700;2023-02-17T20:01:27;101228.72;;;10.73;100.00
40940;BME280;26666;50.156;7.700;2023-02-17T20:06:38;101234.25;;;10.57;100.00
40940;BME280;26666;50.156;7.700;2023-02-17T20:11:40;101234.81;;;10.49;100.00
40940;BME280;26666;50.156;7.700;2023-02-17T20:16:42;101242.38;;;10.67;100.00
40940;BME280;26666;50.156;7.700;2023-02-17T20:21:44;101251.50;;;10.37;100.00
40940;BME280;26666;50.156;7.700;2023-02-17T20:26:46;101244.44;;;10.37;100.00
40940;BME280;26666;50.156;7.700;2023-02-17T20:31:48;101254.66;;;10.55;100.00
40940;BME280;26666;50.156;7.700;2023-02-17T20:36:50;101251.94;;;10.43;100.00
40940;BME280;26666;50.156;7.700;2023-02-17T20:41:53;101255.41;;;10.31;100.00
40940;BME280;26666;50.156;7.700;2023-02-17T20:46:56;101258.34;;;10.52;100.00
40940;BME280;26666;50.156;7.700;2023-02-17T20:52:01;101258.94;;;10.32;100.00
40940;BME280;26666;50.156;7.700;2023-02-17T20:57:16;101257.28;;;10.29;100.00
40940;BME280;26666;50.156;7.700;2023-02-17T21:02:41;101263.09;;;10.21;100.00
40940;BME280;26666;50.156;7.700;2023-02-17T21:07:49;101266.81;;;10.19;100.00
40940;BME280;26666;50.156;7.700;2023-02-17T21:12:53;101277.91;;;10.24;100.00
40940;BME280;26666;50.156;7.700;2023-02-17T21:17:59;101277.09;;;10.23;100.00
40940;BME280;26666;50.156;7.700;2023-02-17T21:23:15;101282.66;;;10.19;100.00
40940;BME280;26666;50.156;7.700;2023-02-17T21:28:34;101289.94;;;10.15;100.00
40940;BME280;26666;50.156;7.700;2023-02-17T21:33:35;101286.34;;;10.29;100.00
40940;BME280;26666;50.156;7.700;2023-02-17T21:38:38;101283.72;;;10.16;100.00
40940;BME280;26666;50.156;7.700;2023-02-17T21:43:40;101280.56;;;10.11;100.00
40940;BME280;26666;50.156;7.700;2023-02-17T21:48:43;101278.13;;;10.21;100.00
40940;BME280;26666;50.156;7.700;2023-02-17T21:53:44;101287.75;;;10.22;100.00
40940;BME280;26666;50.156;7.700;2023-02-17T21:58:48;101281.00;;;10.18;100.00
40940;BME280;26666;50.156;7.700;2023-02-17T22:03:50;101285.94;;;10.10;100.00
40940;BME280;26666;50.156;7.700;2023-02-17T22:08:52;101269.34;;;10.07;100.00
40940;BME280;26666;50.156;7.700;2023-02-17T22:13:56;101285.00;;;10.11;100.00
40940;BME280;26666;50.156;7.700;2023-02-17T22:18:59;101285.19;;;10.07;100.00
40940;BME280;26666;50.156;7.700;2023-02-17T22:24:01;101270.31;;;10.06;100.00
40940;BME280;26666;50.156;7.700;2023-02-17T22:29:04;101267.97;;;10.15;100.00
40940;BME280;26666;50.156;7.700;2023-02-17T22:34:07;101281.09;;;10.16;100.00
40940;BME280;26666;50.156;7.700;2023-02-17T22:39:08;101280.66;;;10.10;100.00
40940;BME280;26666;50.156;7.700;2023-02-17T22:44:10;101273.69;;;10.09;100.00
40940;BME280;26666;50.156;7.700;2023-02-17T22:49:12;101281.19;;;10.15;100.00
40940;BME280;26666;50.156;7.700;2023-02-17T22:54:13;101286.16;;;10.06;100.00
40940;BME280;26666;50.156;7.700;2023-02-17T22:59:15;101283.63;;;10.05;100.00
40940;BME280;26666;50.156;7.700;2023-02-17T23:04:16;101281.72;;;10.07;100.00
40940;BME280;26666;50.156;7.700;2023-02-17T23:09:18;101279.50;;;10.14;100.00
40940;BME280;26666;50.156;7.700;2023-02-17T23:14:33;101285.09;;;10.09;100.00
40940;BME280;26666;50.156;7.700;2023-02-17T23:19:36;101278.13;;;10.08;100.00
40940;BME280;26666;50.156;7.700;2023-02-17T23:24:38;101273.78;;;10.07;100.00
40940;BME280;26666;50.156;7.700;2023-02-17T23:29:40;101281.63;;;10.09;100.00
40940;BME280;26666;50.156;7.700;2023-02-17T23:34:42;101285.63;;;10.01;100.00
40940;BME280;26666;50.156;7.700;2023-02-17T23:39:43;101288.81;;;10.06;100.00
40940;BME280;26666;50.156;7.700;2023-02-17T23:44:45;101286.16;;;10.06;100.00
40940;BME280;26666;50.156;7.700;2023-02-17T23:49:46;101282.91;;;10.16;100.00
40940;BME280;26666;50.156;7.700;2023-02-17T23:54:48;101283.19;;;10.24;100.00
40940;BME280;26666;50.156;7.700;2023-02-17T23:59:50;101280.84;;;10.19;100.00
